Time;durP1;ratioP1;P1;durP2;ratioP2;P2;SDS_P1;SDS_P2;PMS_P1;PMS_P2;Temp;Humidity;BMP_temperature;BMP_pressure;BME280_temperature;BME280_humidity;BME280_pressure;Samples;Min_cycle;Max_cycle;Signal;HPM_P1;HPM_P2
2023/02/01 00:00:17;;;;;;;26.55;10.80;;;;;;;;;;5037037;28;20893;-75
2023/02/01 00:02:43;;;;;;;18.83;9.50;;;;;;;;;;5035656;28;20281;-75
2023/02/01 00:05:10;;;;;;;27.43;10.10;;;;;;;;;;5037366;28;20218;-75
2023/02/01 00:07:36;;;;;;;19.00;9.95;;;;;;;;;;5037291;28;20815;-75
2023/02/01 00:10:03;;;;;;;21.85;10.13;;;;;;;;;;5035851;28;20224;-75
2023/02/01 00:12:30;;;;;;;21.40;8.75;;;;;;;;;;5036785;28;20566;-75
2023/02/01 00:14:56;;;;;;;17.40;9.50;;;;;;;;;;5036773;28;20186;-76
2023/02/01 00:17:22;;;;;;;12.38;7.78;;;;;;;;;;5036752;28;20541;-77
2023/02/01 00:19:48;;;;;;;19.60;8.77;;;;;;;;;;5036878;28;20174;-75
2023/02/01 00:22:13;;;;;;;18.37;7.47;;;;;;;;;;5037077;28;20514;-75
2023/02/01 00:24:40;;;;;;;19.43;7.77;;;;;;;;;;5036713;28;20772;-75
2023/02/01 00:27:05;;;;;;;19.60;6.93;;;;;;;;;;5037109;28;20401;-75
2023/02/01 00:29:31;;;;;;;16.27;6.10;;;;;;;;;;5036242;28;20297;-75
2023/02/01 00:31:57;;;;;;;18.93;7.07;;;;;;;;;;5036516;28;20881;-75
2023/02/01 00:34:23;;;;;;;16.10;5.53;;;;;;;;;;5035303;28;20431;-76
2023/02/01 00:36:49;;;;;;;16.02;5.90;;;;;;;;;;5036127;28;20299;-75
2023/02/01 00:39:15;;;;;;;12.63;5.30;;;;;;;;;;5036670;28;20657;-75
2023/02/01 00:41:42;;;;;;;17.55;6.60;;;;;;;;;;5036290;28;20548;-75
2023/02/01 00:44:08;;;;;;;17.08;5.53;;;;;;;;;;5036576;28;20177;-75
2023/02/01 00:46:34;;;;;;;17.25;5.07;;;;;;;;;;5039302;28;20183;-75
2023/02/01 00:49:00;;;;;;;18.58;5.57;;;;;;;;;;5040076;28;20545;-75
2023/02/01 00:51:29;;;;;;;18.30;5.33;;;;;;;;;;5039547;28;20225;-76
2023/02/01 00:53:55;;;;;;;17.77;6.20;;;;;;;;;;5039378;28;20479;-74
2023/02/01 00:56:21;;;;;;;16.42;5.00;;;;;;;;;;5040113;28;20234;-75
2023/02/01 00:58:47;;;;;;;11.60;4.43;;;;;;;;;;5040304;28;20244;-75
2023/02/01 01:01:13;;;;;;;14.73;5.07;;;;;;;;;;5040434;28;20520;-75
2023/02/01 01:03:40;;;;;;;13.30;5.03;;;;;;;;;;5040152;28;20408;-75
2023/02/01 01:06:07;;;;;;;12.90;5.68;;;;;;;;;;5039569;28;20495;-75
2023/02/01 01:08:33;;;;;;;9.48;4.90;;;;;;;;;;5040350;28;20205;-75
2023/02/01 01:11:00;;;;;;;18.73;4.85;;;;;;;;;;5039945;28;20174;-75
2023/02/01 01:13:25;;;;;;;12.00;4.55;;;;;;;;;;5039677;28;20182;-78
2023/02/01 01:15:51;;;;;;;17.43;4.80;;;;;;;;;;5040022;28;20200;-75
2023/02/01 01:18:17;;;;;;;17.57;4.00;;;;;;;;;;5041001;28;20436;-75
2023/02/01 01:20:43;;;;;;;22.17;4.40;;;;;;;;;;5040309;28;20418;-75
2023/02/01 01:23:10;;;;;;;14.63;4.95;;;;;;;;;;5039857;28;20412;-75
2023/02/01 01:25:40;;;;;;;8.23;4.53;;;;;;;;;;5039501;28;20168;-75
2023/02/01 01:28:06;;;;;;;19.85;5.53;;;;;;;;;;5039369;28;20206;-75
2023/02/01 01:30:33;;;;;;;16.27;5.05;;;;;;;;;;5039397;28;20183;-75
2023/02/01 01:32:59;;;;;;;18.48;3.70;;;;;;;;;;5038775;28;20182;-75
2023/02/01 01:35:25;;;;;;;9.98;3.40;;;;;;;;;;5039744;28;20178;-75
2023/02/01 01:37:51;;;;;;;15.07;5.10;;;;;;;;;;5037829;28;20654;-75
2023/02/01 01:40:17;;;;;;;14.07;4.43;;;;;;;;;;5039832;28;20424;-75
2023/02/01 01:42:44;;;;;;;10.30;4.18;;;;;;;;;;5039541;28;20405;-75
2023/02/01 01:45:28;;;;;;;13.13;4.82;;;;;;;;;;5040139;28;20175;-75
2023/02/01 01:47:55;;;;;;;12.82;4.35;;;;;;;;;;5039088;28;20206;-75
2023/02/01 01:50:24;;;;;;;10.60;4.97;;;;;;;;;;5038068;28;20695;-75
2023/02/01 01:52:51;;;;;;;12.45;4.75;;;;;;;;;;5039500;28;20640;-75
2023/02/01 01:55:20;;;;;;;17.05;4.82;;;;;;;;;;5039362;28;20256;-75
2023/02/01 01:57:48;;;;;;;17.88;6.55;;;;;;;;;;5038293;28;20236;-75
2023/02/01 02:00:16;;;;;;;12.75;5.45;;;;;;;;;;5039253;28;20178;-74
2023/02/01 02:02:44;;;;;;;17.48;5.70;;;;;;;;;;5038352;28;20265;-74
2023/02/01 02:05:11;;;;;;;14.57;6.85;;;;;;;;;;5039593;28;20171;-75
2023/02/01 02:07:38;;;;;;;12.27;5.13;;;;;;;;;;5038216;28;20269;-75
2023/02/01 02:10:06;;;;;;;19.00;6.53;;;;;;;;;;5039295;28;20244;-75
2023/02/01 02:12:33;;;;;;;21.08;8.23;;;;;;;;;;5038814;28;20674;-75
2023/02/01 02:14:59;;;;;;;16.17;7.20;;;;;;;;;;5039414;28;20181;-75
2023/02/01 02:17:36;;;;;;;18.33;7.35;;;;;;;;;;5039073;28;20534;-75
2023/02/01 02:20:17;;;;;;;19.15;7.00;;;;;;;;;;5038025;28;20646;-74
2023/02/01 02:22:58;;;;;;;15.93;6.85;;;;;;;;;;5038836;28;20176;-75
2023/02/01 02:25:43;;;;;;;21.75;7.63;;;;;;;;;;5038188;28;20223;-75
2023/02/01 02:28:18;;;;;;;16.65;6.60;;;;;;;;;;5038725;28;20190;-75
2023/02/01 02:30:51;;;;;;;20.80;7.90;;;;;;;;;;5038233;28;20223;-75
2023/02/01 02:33:33;;;;;;;18.77;7.75;;;;;;;;;;5038172;28;20167;-75
2023/02/01 02:36:07;;;;;;;19.15;7.50;;;;;;;;;;5038896;28;20162;-75
2023/02/01 02:38:39;;;;;;;15.70;7.57;;;;;;;;;;5037775;28;20635;-75
2023/02/01 02:41:05;;;;;;;27.08;7.50;;;;;;;;;;5037876;28;20158;-75
2023/02/01 02:49:07;;;;;;;15.85;7.00;;;;;;;;;;5037125;28;20198;-75
2023/02/01 03:05:32;;;;;;;17.23;7.30;;;;;;;;;;5037383;28;20205;-75
2023/02/01 03:08:03;;;;;;;11.95;5.95;;;;;;;;;;5036413;28;20210;-75
2023/02/01 03:10:38;;;;;;;19.50;7.25;;;;;;;;;;5036719;28;20170;-75
2023/02/01 03:13:06;;;;;;;22.35;5.97;;;;;;;;;;5037380;28;20173;-75
2023/02/01 03:15:42;;;;;;;19.75;7.47;;;;;;;;;;5036847;28;20178;-77
2023/02/01 03:18:14;;;;;;;10.65;6.20;;;;;;;;;;5035613;28;20181;-75
2023/02/01 03:20:41;;;;;;;23.05;7.97;;;;;;;;;;5037229;28;20183;-75
2023/02/01 03:23:07;;;;;;;22.33;6.90;;;;;;;;;;5036354;28;20636;-75
2023/02/01 03:25:33;;;;;;;14.27;6.47;;;;;;;;;;5036986;28;20530;-77
2023/02/01 03:28:05;;;;;;;23.13;6.78;;;;;;;;;;5036969;28;20197;-75
2023/02/01 03:30:34;;;;;;;18.20;7.05;;;;;;;;;;5036981;28;20178;-75
2023/02/01 03:33:02;;;;;;;16.67;6.75;;;;;;;;;;5035646;28;20265;-75
2023/02/01 03:35:41;;;;;;;16.75;6.60;;;;;;;;;;5037395;28;20174;-75
2023/02/01 03:38:13;;;;;;;22.60;6.10;;;;;;;;;;5035541;28;20296;-75
2023/02/01 03:40:40;;;;;;;14.10;5.78;;;;;;;;;;5036532;28;20249;-75
2023/02/01 03:43:07;;;;;;;15.20;5.75;;;;;;;;;;5036006;28;20264;-75
2023/02/01 03:45:36;;;;;;;17.48;5.40;;;;;;;;;;5037145;28;20178;-75
2023/02/01 03:48:03;;;;;;;15.18;5.47;;;;;;;;;;5037077;28;20746;-74
2023/02/01 03:50:29;;;;;;;17.83;5.13;;;;;;;;;;5036731;28;20221;-75
2023/02/01 03:52:58;;;;;;;15.65;5.85;;;;;;;;;;5036767;28;20178;-75
2023/02/01 03:55:25;;;;;;;21.83;6.00;;;;;;;;;;5037238;28;20229;-75
2023/02/01 03:57:59;;;;;;;18.48;7.00;;;;;;;;;;5037227;28;20239;-75
2023/02/01 04:00:26;;;;;;;16.75;6.93;;;;;;;;;;5036943;28;20177;-75
2023/02/01 04:02:53;;;;;;;20.20;6.15;;;;;;;;;;5036637;28;20188;-75
2023/02/01 04:05:19;;;;;;;17.80;6.07;;;;;;;;;;5037454;28;20178;-75
2023/02/01 04:07:45;;;;;;;14.90;6.22;;;;;;;;;;5036887;28;20270;-74
2023/02/01 04:10:12;;;;;;;20.60;6.60;;;;;;;;;;5037225;28;20590;-75
2023/02/01 04:12:38;;;;;;;15.75;6.82;;;;;;;;;;5036821;28;20236;-75
2023/02/01 04:15:04;;;;;;;21.85;6.57;;;;;;;;;;5037148;28;20283;-75
2023/02/01 04:17:30;;;;;;;23.48;6.00;;;;;;;;;;5037280;28;20181;-75
2023/02/01 04:19:57;;;;;;;12.45;5.32;;;;;;;;;;5036409;28;20239;-75
2023/02/01 04:22:22;;;;;;;23.00;6.57;;;;;;;;;;5035754;28;20642;-75
2023/02/01 04:24:49;;;;;;;14.80;4.87;;;;;;;;;;5036310;28;20166;-75
2023/02/01 04:27:15;;;;;;;18.00;6.53;;;;;;;;;;5036919;28;20492;-74
2023/02/01 04:29:41;;;;;;;14.75;6.38;;;;;;;;;;5036545;28;20248;-75
2023/02/01 04:32:07;;;;;;;25.48;6.28;;;;;;;;;;5035791;28;20186;-75
2023/02/01 04:34:33;;;;;;;23.47;5.60;;;;;;;;;;5037131;28;20536;-75
2023/02/01 04:36:59;;;;;;;26.08;6.57;;;;;;;;;;5036415;28;20428;-75
2023/02/01 04:39:25;;;;;;;24.90;5.60;;;;;;;;;;5037073;28;20185;-75
2023/02/01 04:41:51;;;;;;;12.32;4.40;;;;;;;;;;5036386;28;20422;-75
2023/02/01 04:44:18;;;;;;;19.08;4.88;;;;;;;;;;5036846;28;20178;-75
2023/02/01 04:46:45;;;;;;;20.73;5.13;;;;;;;;;;5036851;28;20170;-75
2023/02/01 04:49:12;;;;;;;19.02;5.05;;;;;;;;;;5036939;28;20213;-75
2023/02/01 04:51:38;;;;;;;17.42;6.07;;;;;;;;;;5036937;28;20180;-76
2023/02/01 04:54:04;;;;;;;12.07;4.28;;;;;;;;;;5036822;28;20182;-75
2023/02/01 04:56:30;;;;;;;18.83;5.45;;;;;;;;;;5036880;28;20265;-74
2023/02/01 04:58:56;;;;;;;14.30;4.32;;;;;;;;;;5036612;28;20178;-74
2023/02/01 05:01:22;;;;;;;13.85;4.18;;;;;;;;;;5037211;28;20411;-75
2023/02/01 05:03:48;;;;;;;10.95;3.03;;;;;;;;;;5036143;28;20661;-74
2023/02/01 05:06:14;;;;;;;13.82;4.45;;;;;;;;;;5036826;28;20265;-75
2023/02/01 05:08:40;;;;;;;12.73;3.83;;;;;;;;;;5035278;28;20296;-76
2023/02/01 05:11:06;;;;;;;25.40;5.22;;;;;;;;;;5036198;28;20182;-74
2023/02/01 05:13:47;;;;;;;16.53;4.40;;;;;;;;;;5036813;28;20190;-74
2023/02/01 05:16:13;;;;;;;17.52;4.28;;;;;;;;;;5036853;28;20730;-75
2023/02/01 05:18:39;;;;;;;25.65;5.10;;;;;;;;;;5034948;28;20269;-77
2023/02/01 05:21:05;;;;;;;16.50;4.38;;;;;;;;;;5036465;28;20571;-75
2023/02/01 05:23:31;;;;;;;18.20;4.38;;;;;;;;;;5036818;28;20179;-75
2023/02/01 05:26:01;;;;;;;12.68;4.03;;;;;;;;;;5036653;28;20583;-75
2023/02/01 05:28:28;;;;;;;15.30;4.05;;;;;;;;;;5035142;28;20241;-75
2023/02/01 05:30:54;;;;;;;17.60;3.78;;;;;;;;;;5035144;28;20517;-74
2023/02/01 05:33:19;;;;;;;13.00;4.22;;;;;;;;;;5039087;28;20185;-74
2023/02/01 05:35:45;;;;;;;20.20;3.30;;;;;;;;;;5038611;28;20198;-75
2023/02/01 05:38:11;;;;;;;14.10;4.50;;;;;;;;;;5039926;28;20416;-74
2023/02/01 05:40:37;;;;;;;19.33;3.40;;;;;;;;;;5039755;28;20303;-74
2023/02/01 05:43:03;;;;;;;19.37;3.57;;;;;;;;;;5039804;28;20419;-75
2023/02/01 05:45:29;;;;;;;10.77;2.97;;;;;;;;;;5039829;28;20405;-75
2023/02/01 05:47:56;;;;;;;14.50;4.25;;;;;;;;;;5038290;28;20297;-75
2023/02/01 05:50:21;;;;;;;14.27;3.83;;;;;;;;;;5022082;28;20277;-76
2023/02/01 05:52:48;;;;;;;10.45;2.72;;;;;;;;;;5039138;28;20213;-75
2023/02/01 05:55:14;;;;;;;13.18;3.83;;;;;;;;;;5039575;28;20239;-75
2023/02/01 05:57:40;;;;;;;22.20;3.55;;;;;;;;;;5037881;28;20312;-75
2023/02/01 06:00:06;;;;;;;12.23;2.90;;;;;;;;;;5039373;28;20192;-75
2023/02/01 06:02:32;;;;;;;16.30;4.70;;;;;;;;;;5039585;28;20416;-75
2023/02/01 06:04:58;;;;;;;8.75;3.17;;;;;;;;;;5038600;28;20595;-74
2023/02/01 06:07:24;;;;;;;21.00;4.10;;;;;;;;;;5037718;28;20185;-75
2023/02/01 06:09:50;;;;;;;12.43;3.30;;;;;;;;;;5039101;28;20697;-75
2023/02/01 06:12:16;;;;;;;18.90;3.93;;;;;;;;;;5039085;28;20455;-75
2023/02/01 06:14:43;;;;;;;15.00;3.60;;;;;;;;;;5038569;28;20405;-75
2023/02/01 06:17:09;;;;;;;14.77;3.58;;;;;;;;;;5039496;28;20401;-75
2023/02/01 06:19:35;;;;;;;25.45;5.00;;;;;;;;;;5039124;28;20186;-75
2023/02/01 06:22:01;;;;;;;12.73;4.28;;;;;;;;;;5021413;28;20234;-75
2023/02/01 06:24:27;;;;;;;11.02;3.40;;;;;;;;;;5039200;28;20257;-75
2023/02/01 06:26:53;;;;;;;17.10;3.90;;;;;;;;;;5039125;28;20212;-75
2023/02/01 06:29:19;;;;;;;15.63;3.65;;;;;;;;;;5032970;28;20809;-75
2023/02/01 06:31:45;;;;;;;9.90;3.00;;;;;;;;;;5060148;28;20178;-77
2023/02/01 06:34:11;;;;;;;8.40;3.20;;;;;;;;;;5038824;28;20666;-75
2023/02/01 06:36:37;;;;;;;10.73;3.07;;;;;;;;;;5038718;28;20182;-75
2023/02/01 06:39:03;;;;;;;13.60;3.75;;;;;;;;;;5038151;28;20448;-75
2023/02/01 06:41:29;;;;;;;16.55;3.88;;;;;;;;;;5038789;28;20575;-75
2023/02/01 06:43:55;;;;;;;16.58;3.95;;;;;;;;;;5070157;28;20212;-75
2023/02/01 06:46:21;;;;;;;12.50;4.30;;;;;;;;;;5037707;28;20225;-74
2023/02/01 06:48:49;;;;;;;24.55;5.00;;;;;;;;;;5070430;28;20468;-75
2023/02/01 06:51:22;;;;;;;18.23;3.90;;;;;;;;;;5048304;28;20174;-85
2023/02/01 06:53:48;;;;;;;12.80;3.97;;;;;;;;;;5046622;28;20174;-76
2023/02/01 06:56:14;;;;;;;9.18;3.42;;;;;;;;;;5037005;28;20588;-74
2023/02/01 06:58:40;;;;;;;15.70;3.95;;;;;;;;;;5038095;28;20170;-74
2023/02/01 07:01:07;;;;;;;12.13;3.85;;;;;;;;;;5038428;28;20650;-74
2023/02/01 07:03:33;;;;;;;16.42;3.92;;;;;;;;;;5038019;28;20187;-74
2023/02/01 07:05:59;;;;;;;11.18;4.05;;;;;;;;;;5037006;28;20619;-75
2023/02/01 07:08:27;;;;;;;16.05;3.92;;;;;;;;;;5037161;28;20225;-74
2023/02/01 07:10:53;;;;;;;15.90;4.35;;;;;;;;;;5038093;28;20178;-75
2023/02/01 07:13:19;;;;;;;8.90;2.90;;;;;;;;;;5037400;28;20258;-74
2023/02/01 07:15:48;;;;;;;13.10;3.35;;;;;;;;;;5038397;28;20409;-75
2023/02/01 07:18:15;;;;;;;12.50;3.63;;;;;;;;;;5038559;28;20190;-75
2023/02/01 07:20:41;;;;;;;14.52;4.63;;;;;;;;;;5038132;28;20178;-75
2023/02/01 07:23:10;;;;;;;19.35;4.32;;;;;;;;;;5036449;28;20182;-74
2023/02/01 07:25:36;;;;;;;14.63;3.97;;;;;;;;;;5038237;28;20237;-74
2023/02/01 07:28:02;;;;;;;19.05;4.50;;;;;;;;;;5038048;28;20256;-75
2023/02/01 07:30:28;;;;;;;13.93;2.70;;;;;;;;;;5038182;28;20240;-74
2023/02/01 07:32:54;;;;;;;12.95;4.03;;;;;;;;;;5038006;28;20563;-74
2023/02/01 07:35:20;;;;;;;15.90;3.80;;;;;;;;;;5038397;28;20186;-74
2023/02/01 07:37:46;;;;;;;17.10;3.97;;;;;;;;;;5037973;28;20186;-74
2023/02/01 07:40:12;;;;;;;17.13;4.10;;;;;;;;;;5037482;28;20416;-74
2023/02/01 07:42:38;;;;;;;11.98;3.45;;;;;;;;;;5037715;28;20429;-74
2023/02/01 07:45:04;;;;;;;15.35;3.97;;;;;;;;;;5037637;28;20166;-75
2023/02/01 07:47:30;;;;;;;9.95;4.05;;;;;;;;;;5037726;28;20561;-74
2023/02/01 07:49:56;;;;;;;5.10;2.33;;;;;;;;;;5037768;28;20238;-74
2023/02/01 07:52:22;;;;;;;14.13;3.47;;;;;;;;;;5037862;28;20836;-75
2023/02/01 07:54:48;;;;;;;22.67;4.20;;;;;;;;;;5037121;28;20401;-74
2023/02/01 07:57:14;;;;;;;18.60;3.85;;;;;;;;;;5037837;28;20456;-74
2023/02/01 08:01:19;;;;;;;11.70;4.10;;;;;;;;;;5037662;28;20182;-74
2023/02/01 08:02:26;;;;;;;19.55;4.55;;;;;;;;;;5036419;28;20901;-75
2023/02/01 08:04:52;;;;;;;7.67;3.17;;;;;;;;;;5069568;28;20183;-74
2023/02/01 08:07:18;;;;;;;15.93;4.37;;;;;;;;;;5038174;28;20506;-74
2023/02/01 08:09:44;;;;;;;15.43;3.80;;;;;;;;;;5038015;28;20818;-75
2023/02/01 08:12:10;;;;;;;19.47;5.83;;;;;;;;;;5037046;28;20417;-75
2023/02/01 08:14:36;;;;;;;13.33;3.70;;;;;;;;;;5036545;28;20475;-74
2023/02/01 08:17:02;;;;;;;17.35;4.78;;;;;;;;;;5037776;28;20447;-74
2023/02/01 08:19:28;;;;;;;18.40;5.33;;;;;;;;;;5069688;28;20178;-74
2023/02/01 08:21:54;;;;;;;11.83;3.23;;;;;;;;;;5037487;28;20413;-74
2023/02/01 08:24:21;;;;;;;14.87;4.00;;;;;;;;;;5036792;28;20451;-74
2023/02/01 08:26:47;;;;;;;22.20;3.90;;;;;;;;;;5037477;28;20909;-74
2023/02/01 08:29:13;;;;;;;18.80;3.77;;;;;;;;;;5037021;28;20208;-74
2023/02/01 08:31:43;;;;;;;22.92;4.00;;;;;;;;;;5038502;28;20420;-74
2023/02/01 08:34:09;;;;;;;17.02;3.78;;;;;;;;;;5036972;28;20174;-75
2023/02/01 08:36:38;;;;;;;11.68;3.45;;;;;;;;;;5037857;28;20518;-75
2023/02/01 08:39:08;;;;;;;11.70;3.00;;;;;;;;;;5036719;28;20581;-75
2023/02/01 08:41:34;;;;;;;15.10;3.45;;;;;;;;;;5068879;28;20158;-74
2023/02/01 08:44:00;;;;;;;10.63;3.60;;;;;;;;;;5037710;28;20189;-74
2023/02/01 08:46:27;;;;;;;13.95;3.83;;;;;;;;;;5037372;28;20759;-74
2023/02/01 08:48:53;;;;;;;21.58;4.53;;;;;;;;;;5036614;28;20202;-78
2023/02/01 08:51:20;;;;;;;13.98;4.03;;;;;;;;;;5037506;28;20193;-74
2023/02/01 08:53:46;;;;;;;17.17;4.20;;;;;;;;;;5037180;28;20178;-74
2023/02/01 08:56:13;;;;;;;12.20;3.15;;;;;;;;;;5036749;28;20178;-75
2023/02/01 08:58:39;;;;;;;9.48;3.03;;;;;;;;;;5037720;28;20224;-75
2023/02/01 09:01:09;;;;;;;13.82;3.92;;;;;;;;;;5037053;28;20641;-74
2023/02/01 09:03:35;;;;;;;9.48;3.33;;;;;;;;;;5037585;28;20254;-74
2023/02/01 09:06:05;;;;;;;18.90;3.70;;;;;;;;;;5036904;28;20217;-74
2023/02/01 09:08:31;;;;;;;13.05;5.40;;;;;;;;;;5041106;28;20214;-75
2023/02/01 09:11:03;;;;;;;15.63;4.05;;;;;;;;;;5040784;28;20232;-75
2023/02/01 09:13:30;;;;;;;16.77;3.67;;;;;;;;;;5041101;28;20523;-74
2023/02/01 09:15:55;;;;;;;14.75;3.22;;;;;;;;;;5040855;28;20574;-75
2023/02/01 09:18:22;;;;;;;11.77;3.67;;;;;;;;;;5040937;28;20252;-75
2023/02/01 09:20:48;;;;;;;12.85;3.80;;;;;;;;;;5039930;28;20182;-75
2023/02/01 09:23:14;;;;;;;12.05;3.88;;;;;;;;;;5040229;28;20170;-75
2023/02/01 09:25:40;;;;;;;16.88;2.83;;;;;;;;;;5040587;28;20181;-75
2023/02/01 09:28:06;;;;;;;21.95;3.58;;;;;;;;;;5039618;28;20626;-75
2023/02/01 09:30:32;;;;;;;9.40;3.35;;;;;;;;;;5040207;28;20209;-75
2023/02/01 09:32:58;;;;;;;7.65;3.03;;;;;;;;;;5040635;28;20582;-75
2023/02/01 09:35:24;;;;;;;12.20;3.30;;;;;;;;;;5040601;28;20215;-75
2023/02/01 09:37:52;;;;;;;6.55;2.95;;;;;;;;;;5040410;28;20891;-74
2023/02/01 09:40:18;;;;;;;14.20;3.25;;;;;;;;;;5039843;28;20174;-74
2023/02/01 09:42:49;;;;;;;15.30;3.55;;;;;;;;;;5040294;28;20312;-75
2023/02/01 09:45:14;;;;;;;11.27;4.35;;;;;;;;;;5039077;28;20185;-75
2023/02/01 09:47:46;;;;;;;21.27;3.30;;;;;;;;;;5039659;28;20635;-74
2023/02/01 09:50:19;;;;;;;12.25;3.75;;;;;;;;;;5040448;28;20407;-75
2023/02/01 09:52:51;;;;;;;15.10;4.32;;;;;;;;;;5040467;28;20188;-74
2023/02/01 09:55:21;;;;;;;15.70;4.40;;;;;;;;;;5039568;28;20181;-75
2023/02/01 09:57:51;;;;;;;18.88;4.28;;;;;;;;;;5038919;28;20235;-75
2023/02/01 10:00:21;;;;;;;16.70;3.67;;;;;;;;;;5039162;28;20171;-74
2023/02/01 10:02:47;;;;;;;22.90;3.83;;;;;;;;;;5039687;28;20509;-75
2023/02/01 10:05:15;;;;;;;13.13;3.60;;;;;;;;;;5039003;28;20178;-75
2023/02/01 10:07:50;;;;;;;14.70;4.50;;;;;;;;;;5039576;28;20218;-75
2023/02/01 10:10:22;;;;;;;10.63;3.00;;;;;;;;;;5039365;28;20168;-75
2023/02/01 10:12:54;;;;;;;12.40;3.50;;;;;;;;;;5040385;28;20745;-74
2023/02/01 10:15:25;;;;;;;13.38;2.15;;;;;;;;;;5037877;28;20177;-75
2023/02/01 10:18:00;;;;;;;12.27;3.20;;;;;;;;;;5039030;28;20296;-75
2023/02/01 10:20:39;;;;;;;11.73;3.28;;;;;;;;;;5039540;28;20174;-75
2023/02/01 10:23:15;;;;;;;13.20;3.40;;;;;;;;;;5039193;28;20493;-75
2023/02/01 10:25:40;;;;;;;14.93;3.75;;;;;;;;;;5038564;28;20536;-75
2023/02/01 10:28:10;;;;;;;11.93;3.00;;;;;;;;;;5038724;28;20285;-74
2023/02/01 10:30:43;;;;;;;12.10;2.90;;;;;;;;;;5038705;28;20444;-75
2023/02/01 10:33:16;;;;;;;21.10;5.00;;;;;;;;;;5038795;28;20253;-75
2023/02/01 10:35:43;;;;;;;26.60;3.95;;;;;;;;;;5038743;28;20170;-75
2023/02/01 10:38:16;;;;;;;15.48;3.45;;;;;;;;;;5039063;28;20524;-80
2023/02/01 10:40:43;;;;;;;15.45;2.90;;;;;;;;;;5038296;28;20205;-78
2023/02/01 10:43:10;;;;;;;13.30;3.63;;;;;;;;;;5036825;28;20177;-77
2023/02/01 10:45:36;;;;;;;20.40;3.97;;;;;;;;;;5035890;28;20228;-78
2023/02/01 10:48:03;;;;;;;7.95;2.90;;;;;;;;;;5036981;28;20212;-78
2023/02/01 10:50:49;;;;;;;15.02;3.50;;;;;;;;;;5036087;28;20645;-77
2023/02/01 10:53:18;;;;;;;17.30;4.13;;;;;;;;;;5035723;28;20174;-77
2023/02/01 10:55:44;;;;;;;10.60;3.63;;;;;;;;;;5037611;28;20208;-77
2023/02/01 10:58:31;;;;;;;12.20;3.20;;;;;;;;;;5035473;28;20664;-78
2023/02/01 11:00:58;;;;;;;9.13;2.97;;;;;;;;;;5037750;28;20382;-77
2023/02/01 11:03:32;;;;;;;13.23;3.85;;;;;;;;;;5035702;28;20182;-77
2023/02/01 11:05:58;;;;;;;10.52;3.08;;;;;;;;;;5037258;28;20172;-78
2023/02/01 11:08:24;;;;;;;13.85;2.90;;;;;;;;;;5068274;28;20218;-78
2023/02/01 11:10:58;;;;;;;24.48;3.50;;;;;;;;;;5051966;28;20649;-77
2023/02/01 11:13:28;;;;;;;8.45;4.03;;;;;;;;;;5036528;28;20186;-78
2023/02/01 11:15:57;;;;;;;7.35;3.45;;;;;;;;;;5036965;28;20257;-77
2023/02/01 11:18:31;;;;;;;10.05;3.22;;;;;;;;;;5036325;28;20192;-77
2023/02/01 11:20:57;;;;;;;11.23;3.20;;;;;;;;;;5037349;28;20178;-77
2023/02/01 11:23:27;;;;;;;11.35;3.63;;;;;;;;;;5030707;28;20178;-78
2023/02/01 11:25:54;;;;;;;8.82;3.13;;;;;;;;;;5016625;28;20183;-77
2023/02/01 11:28:21;;;;;;;18.55;4.18;;;;;;;;;;5016413;28;20206;-78
2023/02/01 11:30:48;;;;;;;7.75;2.15;;;;;;;;;;5016046;28;20178;-77
2023/02/01 11:33:16;;;;;;;8.55;3.05;;;;;;;;;;5015117;28;20273;-77
2023/02/01 11:35:42;;;;;;;11.85;3.22;;;;;;;;;;5016545;28;20175;-77
2023/02/01 11:38:20;;;;;;;11.48;3.30;;;;;;;;;;5016875;28;20183;-77
2023/02/01 11:40:46;;;;;;;8.02;3.25;;;;;;;;;;5024202;28;20202;-78
2023/02/01 11:43:15;;;;;;;11.80;3.00;;;;;;;;;;5034103;28;20181;-77
2023/02/01 11:45:41;;;;;;;10.52;3.40;;;;;;;;;;5034846;28;20196;-77
2023/02/01 11:48:09;;;;;;;9.20;2.90;;;;;;;;;;5035937;28;20211;-77
2023/02/01 11:50:39;;;;;;;14.10;2.80;;;;;;;;;;5036900;28;20640;-77
2023/02/01 11:53:20;;;;;;;13.13;3.78;;;;;;;;;;5035052;28;20522;-78
2023/02/01 11:56:06;;;;;;;15.15;3.58;;;;;;;;;;5036345;28;20623;-77
2023/02/01 11:58:59;;;;;;;8.75;3.60;;;;;;;;;;5016938;28;20210;-77
2023/02/01 12:01:44;;;;;;;19.40;3.75;;;;;;;;;;5016077;28;20217;-78
2023/02/01 12:04:28;;;;;;;9.85;3.13;;;;;;;;;;5015911;28;20573;-77
2023/02/01 12:06:56;;;;;;;12.50;3.30;;;;;;;;;;5017231;28;20270;-78
2023/02/01 12:09:41;;;;;;;17.90;4.07;;;;;;;;;;5016690;28;20202;-77
2023/02/01 12:12:07;;;;;;;7.25;2.88;;;;;;;;;;5016538;28;20276;-77
2023/02/01 12:14:42;;;;;;;9.67;3.57;;;;;;;;;;5016578;28;20228;-78
2023/02/01 12:17:17;;;;;;;15.15;3.65;;;;;;;;;;5016624;28;20757;-77
2023/02/01 12:19:59;;;;;;;13.50;3.67;;;;;;;;;;5016759;28;20209;-77
2023/02/01 12:22:45;;;;;;;14.63;3.03;;;;;;;;;;5016515;28;20175;-77
2023/02/01 12:25:15;;;;;;;10.68;3.22;;;;;;;;;;5016711;28;20177;-77
2023/02/01 12:28:00;;;;;;;11.40;2.78;;;;;;;;;;5016097;28;20527;-78
2023/02/01 12:31:04;;;;;;;16.00;3.13;;;;;;;;;;5018240;28;20536;-78
2023/02/01 12:33:40;;;;;;;12.20;3.80;;;;;;;;;;5014404;28;20188;-77
2023/02/01 12:36:06;;;;;;;16.42;4.00;;;;;;;;;;5015618;28;20238;-79
2023/02/01 12:38:35;;;;;;;11.80;2.83;;;;;;;;;;5016055;28;20225;-77
2023/02/01 12:41:07;;;;;;;9.30;3.08;;;;;;;;;;5016888;28;20178;-77
2023/02/01 12:43:33;;;;;;;10.45;2.45;;;;;;;;;;5020750;28;20185;-78
2023/02/01 12:46:01;;;;;;;13.77;3.47;;;;;;;;;;5023702;28;20179;-77
2023/02/01 12:48:33;;;;;;;10.35;3.35;;;;;;;;;;5028231;28;20464;-77
2023/02/01 12:51:08;;;;;;;7.82;2.40;;;;;;;;;;5030436;28;20167;-77
2023/02/01 12:53:46;;;;;;;10.45;2.67;;;;;;;;;;5040598;28;20166;-77
2023/02/01 12:56:15;;;;;;;11.63;2.60;;;;;;;;;;5040048;28;20163;-77
2023/02/01 12:58:44;;;;;;;14.15;3.47;;;;;;;;;;5039909;28;20201;-77
2023/02/01 13:01:21;;;;;;;14.85;4.18;;;;;;;;;;5039874;28;20174;-76
2023/02/01 13:03:55;;;;;;;15.27;3.38;;;;;;;;;;5039902;28;20174;-77
2023/02/01 13:06:23;;;;;;;16.85;2.92;;;;;;;;;;5040514;28;20170;-77
2023/02/01 13:09:04;;;;;;;9.80;3.03;;;;;;;;;;5039420;28;20212;-76
2023/02/01 13:11:40;;;;;;;14.93;3.72;;;;;;;;;;5039204;28;20193;-77
2023/02/01 13:14:12;;;;;;;8.07;3.10;;;;;;;;;;5038288;28;20571;-76
2023/02/01 13:16:41;;;;;;;10.35;3.15;;;;;;;;;;5039511;28;20570;-76
2023/02/01 13:19:15;;;;;;;8.95;3.03;;;;;;;;;;5039401;28;20186;-77
2023/02/01 13:21:50;;;;;;;13.50;3.20;;;;;;;;;;5038726;28;20173;-77
2023/02/01 13:24:28;;;;;;;10.95;3.30;;;;;;;;;;5039269;28;20184;-76
2023/02/01 13:26:55;;;;;;;7.93;2.60;;;;;;;;;;5039805;28;20157;-77
2023/02/01 13:29:22;;;;;;;9.00;2.53;;;;;;;;;;5037256;28;20232;-77
2023/02/01 13:32:06;;;;;;;8.82;2.53;;;;;;;;;;5039277;28;20178;-76
2023/02/01 13:34:41;;;;;;;11.45;3.15;;;;;;;;;;5039021;28;20642;-76
2023/02/01 13:37:24;;;;;;;20.63;3.35;;;;;;;;;;5039211;28;20176;-76
2023/02/01 13:39:53;;;;;;;9.27;2.90;;;;;;;;;;5039061;28;20169;-77
2023/02/01 13:42:24;;;;;;;9.75;3.15;;;;;;;;;;5038877;28;20205;-77
2023/02/01 13:44:57;;;;;;;12.65;3.15;;;;;;;;;;5039242;28;20174;-77
2023/02/01 13:47:26;;;;;;;13.65;3.30;;;;;;;;;;5040481;28;20178;-78
2023/02/01 13:49:54;;;;;;;14.50;4.15;;;;;;;;;;5041484;28;20225;-76
2023/02/01 13:52:28;;;;;;;10.38;4.10;;;;;;;;;;5039075;28;20185;-76
2023/02/01 13:55:12;;;;;;;8.02;2.65;;;;;;;;;;5039647;28;20257;-77
2023/02/01 13:57:40;;;;;;;5.85;2.20;;;;;;;;;;5039116;28;20690;-77
2023/02/01 14:00:09;;;;;;;14.82;3.60;;;;;;;;;;5038813;28;20188;-77
2023/02/01 14:02:41;;;;;;;11.38;3.00;;;;;;;;;;5024496;28;20222;-77
2023/02/01 14:05:11;;;;;;;5.95;2.80;;;;;;;;;;5031971;28;20212;-77
2023/02/01 14:07:57;;;;;;;12.68;2.65;;;;;;;;;;5039657;28;20275;-77
2023/02/01 14:10:42;;;;;;;10.55;2.65;;;;;;;;;;5038736;28;20336;-77
2023/02/01 14:13:22;;;;;;;10.35;2.85;;;;;;;;;;5036974;28;20626;-77
2023/02/01 14:16:11;;;;;;;6.90;2.70;;;;;;;;;;5038462;28;20170;-77
2023/02/01 14:18:37;;;;;;;8.70;2.53;;;;;;;;;;5028769;28;20196;-77
2023/02/01 14:21:21;;;;;;;12.55;2.65;;;;;;;;;;5028521;28;20174;-77
2023/02/01 14:24:07;;;;;;;19.52;3.95;;;;;;;;;;5026732;28;20542;-78
2023/02/01 14:26:49;;;;;;;13.05;2.40;;;;;;;;;;5024420;28;20199;-78
2023/02/01 14:29:15;;;;;;;13.25;2.55;;;;;;;;;;5025710;28;20669;-77
2023/02/01 14:32:05;;;;;;;10.80;2.00;;;;;;;;;;5027741;28;20315;-77
2023/02/01 14:34:42;;;;;;;11.68;2.03;;;;;;;;;;5027034;28;20417;-76
2023/02/01 14:37:10;;;;;;;20.13;2.45;;;;;;;;;;5018318;28;20182;-77
2023/02/01 14:39:44;;;;;;;6.50;2.40;;;;;;;;;;5018224;28;20247;-77
2023/02/01 14:42:21;;;;;;;11.48;2.40;;;;;;;;;;5018570;28;20184;-77
2023/02/01 14:44:48;;;;;;;15.38;3.20;;;;;;;;;;5018391;28;20175;-77
2023/02/01 14:47:33;;;;;;;11.27;2.75;;;;;;;;;;5016746;28;20205;-80
2023/02/01 14:50:03;;;;;;;6.50;2.25;;;;;;;;;;5018398;28;20202;-77
2023/02/01 14:52:38;;;;;;;4.78;1.63;;;;;;;;;;5017981;28;20265;-76
2023/02/01 14:55:10;;;;;;;9.25;4.18;;;;;;;;;;5018643;28;20555;-77
2023/02/01 14:57:39;;;;;;;8.93;3.00;;;;;;;;;;5017527;28;20230;-77
2023/02/01 15:00:08;;;;;;;12.02;2.10;;;;;;;;;;5019811;28;20178;-77
2023/02/01 15:02:35;;;;;;;11.57;2.92;;;;;;;;;;5028314;28;20174;-77